createdAt,value
2022-12-24T00:02:07.554Z,19.47
2022-12-24T00:08:01.178Z,22.27
2022-12-24T00:13:56.099Z,21.20
2022-12-24T00:19:49.686Z,21.67
2022-12-24T00:25:43.323Z,19.50
2022-12-24T00:31:38.200Z,20.50
2022-12-24T00:37:31.957Z,20.00
2022-12-24T00:43:25.411Z,18.70
2022-12-24T00:49:20.519Z,17.10
2022-12-24T00:55:14.481Z,16.90
2022-12-24T01:01:08.754Z,22.63
2022-12-24T01:07:03.758Z,24.30
2022-12-24T01:12:56.971Z,23.87
2022-12-24T01:18:59.057Z,20.20
2022-12-24T01:24:54.054Z,23.87
2022-12-24T01:30:48.030Z,20.30
2022-12-24T01:36:41.603Z,23.10
2022-12-24T01:42:53.949Z,18.87
2022-12-24T01:48:50.723Z,22.40
2022-12-24T01:54:48.172Z,19.47
2022-12-24T02:00:43.048Z,22.77
2022-12-24T02:06:36.523Z,19.60
2022-12-24T02:12:33.884Z,17.27
2022-12-24T02:18:39.063Z,15.53
2022-12-24T02:25:02.354Z,14.47
2022-12-24T02:31:04.048Z,14.90
2022-12-24T02:37:04.761Z,16.53
2022-12-24T02:43:03.414Z,12.90
2022-12-24T02:49:00.680Z,15.07
2022-12-24T02:54:54.197Z,12.90
2022-12-24T03:01:17.643Z,15.80
2022-12-24T03:07:21.593Z,12.10
2022-12-24T03:13:18.251Z,14.90
2022-12-24T03:19:11.847Z,13.80
2022-12-24T03:25:07.598Z,11.20
2022-12-24T03:31:03.330Z,10.50
2022-12-24T03:36:56.834Z,11.63
2022-12-24T03:42:51.304Z,9.47
2022-12-24T03:48:44.301Z,8.97
2022-12-24T03:54:37.787Z,10.03
2022-12-24T04:00:32.571Z,6.90
2022-12-24T04:06:26.247Z,9.90
2022-12-24T04:12:19.670Z,10.10
2022-12-24T04:18:14.535Z,9.77
2022-12-24T04:24:08.416Z,9.30
2022-12-24T04:30:01.899Z,9.53
2022-12-24T04:35:59.130Z,10.47
2022-12-24T04:41:52.607Z,7.73
2022-12-24T04:47:46.218Z,11.07
2022-12-24T04:53:41.852Z,9.37
2022-12-24T04:59:35.541Z,9.67
2022-12-24T05:05:29.048Z,10.80
2022-12-24T05:11:24.146Z,8.47
2022-12-24T05:17:17.727Z,10.90
2022-12-24T05:23:34.122Z,11.13
2022-12-24T05:29:28.556Z,7.90
2022-12-24T05:35:22.113Z,8.83
2022-12-24T05:41:15.680Z,9.40
2022-12-24T05:47:10.549Z,8.50
2022-12-24T05:53:04.068Z,8.30
2022-12-24T05:58:58.447Z,6.13
2022-12-24T06:04:53.360Z,6.00
2022-12-24T06:10:46.441Z,5.20
2022-12-24T06:16:39.759Z,5.87
2022-12-24T06:22:35.356Z,6.40
2022-12-24T06:28:29.019Z,5.30
2022-12-24T06:34:25.005Z,5.60
2022-12-24T06:40:20.015Z,5.33
2022-12-24T06:46:13.160Z,6.00
2022-12-24T06:52:06.301Z,4.33
2022-12-24T06:58:00.749Z,4.37
2022-12-24T07:03:53.886Z,3.77
2022-12-24T07:09:46.953Z,4.73
2022-12-24T07:15:41.367Z,5.37
2022-12-24T07:21:34.560Z,3.80
2022-12-24T07:27:27.629Z,3.57
2022-12-24T07:33:22.455Z,3.73
2022-12-24T07:39:15.624Z,4.00
2022-12-24T07:45:09.781Z,3.43
2022-12-24T07:51:04.484Z,3.33
2022-12-24T07:56:57.997Z,3.90
2022-12-24T08:02:51.123Z,3.23
2022-12-24T08:08:45.721Z,4.50
2022-12-24T08:14:38.782Z,6.23
2022-12-24T08:20:32.223Z,5.50
2022-12-24T08:26:26.611Z,3.70
2022-12-24T08:32:19.968Z,3.67
2022-12-24T08:38:13.027Z,3.53
2022-12-24T08:44:07.994Z,5.10
2022-12-24T08:50:01.301Z,4.20
2022-12-24T08:55:56.334Z,7.97
2022-12-24T09:01:51.600Z,13.13
2022-12-24T09:07:45.098Z,4.73
2022-12-24T09:13:39.129Z,3.97
2022-12-24T09:19:34.032Z,4.77
2022-12-24T09:25:27.242Z,6.00
2022-12-24T09:31:21.519Z,4.80
2022-12-24T09:37:16.274Z,6.00
2022-12-24T09:43:16.840Z,4.97
2022-12-24T09:49:19.549Z,4.87
2022-12-24T09:55:22.735Z,5.37
2022-12-24T10:01:18.103Z,5.23
2022-12-24T10:07:27.189Z,4.73
2022-12-24T10:13:35.225Z,5.97
2022-12-24T10:19:45.665Z,5.40
2022-12-24T10:25:45.572Z,5.00
2022-12-24T10:31:45.846Z,4.97
2022-12-24T10:37:40.395Z,5.30
2022-12-24T10:43:33.683Z,6.20
2022-12-24T10:49:35.315Z,6.60
2022-12-24T10:55:28.547Z,4.80
2022-12-24T11:01:22.898Z,5.80
2022-12-24T11:07:22.120Z,6.40
2022-12-24T11:13:41.929Z,5.57
2022-12-24T11:19:39.153Z,6.30
2022-12-24T11:25:37.777Z,6.17
2022-12-24T11:38:28.587Z,6.57
2022-12-24T11:51:22.051Z,7.67
2022-12-24T11:57:17.704Z,8.43
2022-12-24T12:03:25.104Z,6.70
2022-12-24T12:09:21.978Z,8.23
2022-12-24T12:15:19.148Z,6.30
2022-12-24T12:21:18.568Z,8.80
2022-12-24T12:27:21.067Z,8.63
2022-12-24T12:33:21.260Z,7.10
2022-12-24T12:39:16.853Z,9.90
2022-12-24T12:45:34.896Z,8.77
2022-12-24T12:51:36.602Z,10.80
2022-12-24T12:57:36.736Z,14.87
2022-12-24T13:03:48.700Z,15.07
2022-12-24T13:10:04.918Z,12.30
2022-12-24T13:16:25.430Z,11.43
2022-12-24T13:22:22.376Z,19.20
2022-12-24T13:28:34.171Z,14.73
2022-12-24T13:34:39.583Z,16.40
2022-12-24T13:40:32.838Z,19.83
2022-12-24T13:46:51.695Z,21.73
2022-12-24T13:52:54.188Z,24.40
2022-12-24T13:58:50.367Z,17.50
2022-12-24T14:04:44.048Z,14.93
2022-12-24T14:10:43.605Z,16.37
2022-12-24T14:16:51.783Z,14.57
2022-12-24T14:22:47.152Z,17.90
2022-12-24T14:28:46.539Z,17.13
2022-12-24T14:34:40.088Z,14.83
2022-12-24T14:40:36.611Z,21.50
2022-12-24T14:46:39.181Z,20.53
2022-12-24T14:58:57.128Z,16.33
2022-12-24T15:05:06.984Z,23.77
2022-12-24T15:11:04.395Z,23.57
2022-12-24T15:16:59.690Z,15.50
2022-12-24T15:22:57.524Z,20.97
2022-12-24T15:28:56.558Z,17.60
2022-12-24T15:34:55.854Z,21.73
2022-12-24T15:40:51.867Z,21.13
2022-12-24T15:46:45.392Z,18.80
2022-12-24T15:52:42.081Z,20.50
2022-12-24T15:58:38.692Z,16.10
2022-12-24T16:04:32.257Z,21.07
2022-12-24T16:10:26.296Z,27.57
2022-12-24T16:16:23.156Z,21.43
2022-12-24T16:22:36.143Z,22.70
2022-12-24T16:28:29.824Z,22.00
2022-12-24T16:34:27.117Z,19.03
2022-12-24T16:40:26.813Z,18.50
2022-12-24T16:46:21.112Z,25.87
2022-12-24T16:52:22.064Z,25.00
2022-12-24T16:58:17.051Z,23.10
2022-12-24T17:04:10.633Z,23.27
2022-12-24T17:10:06.402Z,19.00
2022-12-24T17:16:01.971Z,25.10
2022-12-24T17:21:55.506Z,21.00
2022-12-24T17:27:50.443Z,25.23
2022-12-24T17:33:44.754Z,21.13
2022-12-24T17:39:38.526Z,18.03
2022-12-24T17:45:33.471Z,19.33
2022-12-24T17:51:29.174Z,19.83
2022-12-24T17:57:22.297Z,25.73
2022-12-24T18:03:16.901Z,24.70
2022-12-24T18:09:10.563Z,21.50
2022-12-24T18:15:04.019Z,18.43
2022-12-24T18:20:58.871Z,23.63
2022-12-24T18:26:51.922Z,19.10
2022-12-24T18:32:45.555Z,22.03
2022-12-24T18:38:40.317Z,23.20
2022-12-24T18:44:33.910Z,24.20
2022-12-24T18:50:28.082Z,16.90
2022-12-24T18:56:24.512Z,24.60
2022-12-24T19:02:18.072Z,23.40
2022-12-24T19:08:47.331Z,24.27
2022-12-24T19:14:27.028Z,20.93
2022-12-24T19:20:20.562Z,25.80
2022-12-24T19:26:15.216Z,21.30
2022-12-24T19:32:10.017Z,18.63
2022-12-24T19:38:03.507Z,19.53
2022-12-24T19:43:58.818Z,16.47
2022-12-24T19:49:53.198Z,21.63
2022-12-24T19:55:46.892Z,18.07
2022-12-24T20:01:40.541Z,21.23
2022-12-24T20:07:35.721Z,16.93
2022-12-24T20:13:29.122Z,16.83
2022-12-24T20:19:22.813Z,17.80
2022-12-24T20:25:17.865Z,11.93
2022-12-24T20:31:13.278Z,22.13
2022-12-24T20:37:06.822Z,18.07
2022-12-24T20:43:01.731Z,14.30
2022-12-24T20:48:56.148Z,18.47
2022-12-24T20:54:50.063Z,19.70
2022-12-24T21:00:45.440Z,18.13
2022-12-24T21:06:39.232Z,18.37
2022-12-24T21:12:52.177Z,20.23
2022-12-24T21:18:47.128Z,18.87
2022-12-24T21:24:41.766Z,9.10
2022-12-24T21:30:35.259Z,15.50
2022-12-24T21:36:30.178Z,19.40
2022-12-24T21:42:23.605Z,20.77
2022-12-24T21:48:30.483Z,16.97
2022-12-24T21:54:27.132Z,21.07
2022-12-24T22:00:27.001Z,15.33
2022-12-24T22:06:34.866Z,16.90
2022-12-24T22:12:31.873Z,15.70
2022-12-24T22:18:27.161Z,17.17
2022-12-24T22:24:21.804Z,14.40
2022-12-24T22:30:16.717Z,21.03
2022-12-24T22:36:10.378Z,17.37
2022-12-24T22:42:03.952Z,16.83
2022-12-24T22:47:58.336Z,16.77
2022-12-24T22:53:52.079Z,20.27
2022-12-24T22:59:45.702Z,17.60
2022-12-24T23:05:40.844Z,19.43
2022-12-24T23:11:34.405Z,19.30
2022-12-24T23:17:27.826Z,14.90
2022-12-24T23:23:22.569Z,17.93
2022-12-24T23:29:16.063Z,19.33
2022-12-24T23:35:10.381Z,19.50
2022-12-24T23:41:08.229Z,13.43
2022-12-24T23:47:01.798Z,16.97
2022-12-24T23:52:54.861Z,22.40
2022-12-24T23:58:50.040Z,15.13
